createdAt,value
2018-11-20T00:00:52.994Z,3.00
2018-11-20T00:03:38.806Z,2.90
2018-11-20T00:06:33.445Z,3.00
2018-11-20T00:09:22.305Z,3.00
2018-11-20T00:12:13.439Z,3.00
2018-11-20T00:14:58.892Z,3.00
2018-11-20T00:17:47.853Z,3.00
2018-11-20T00:20:43.109Z,3.00
2018-11-20T00:23:47.205Z,2.90
2018-11-20T00:26:34.908Z,2.90
2018-11-20T00:29:35.947Z,2.90
2018-11-20T00:32:27.568Z,2.90
2018-11-20T00:35:22.160Z,2.90
2018-11-20T00:38:13.670Z,3.00
2018-11-20T00:41:11.345Z,3.10
2018-11-20T00:43:58.768Z,3.10
2018-11-20T00:46:50.401Z,3.10
2018-11-20T00:49:54.252Z,3.10
2018-11-20T00:52:54.935Z,3.20
2018-11-20T00:56:25.572Z,3.20
2018-11-20T00:59:17.247Z,3.20
2018-11-20T01:02:12.658Z,3.20
2018-11-20T01:05:16.929Z,3.20
2018-11-20T01:08:04.253Z,3.20
2018-11-20T01:10:51.782Z,3.20
2018-11-20T01:13:43.499Z,3.30
2018-11-20T01:16:35.428Z,3.30
2018-11-20T01:19:22.750Z,3.30
2018-11-20T01:22:11.610Z,3.30
2018-11-20T01:25:00.572Z,3.30
2018-11-20T01:27:48.094Z,3.40
2018-11-20T01:30:45.879Z,3.40
2018-11-20T01:33:52.948Z,3.40
2018-11-20T01:36:37.708Z,3.40
2018-11-20T01:39:46.840Z,3.40
2018-11-20T01:42:34.471Z,3.30
2018-11-20T01:45:23.351Z,3.40
2018-11-20T01:48:17.820Z,3.40
2018-11-20T01:51:05.140Z,3.40
2018-11-20T01:54:05.773Z,3.30
2018-11-20T01:56:52.258Z,3.30
2018-11-20T01:59:33.318Z,3.20
2018-11-20T02:02:25.074Z,3.20
2018-11-20T02:05:12.498Z,3.20
2018-11-20T02:08:00.231Z,3.30
2018-11-20T02:10:47.961Z,3.30
2018-11-20T02:14:13.206Z,3.30
2018-11-20T02:17:12.985Z,3.40
2018-11-20T02:20:16.911Z,3.30
2018-11-20T02:23:04.169Z,3.30
2018-11-20T02:25:52.998Z,3.30
2018-11-20T02:28:40.806Z,3.30
2018-11-20T02:31:27.616Z,3.30
2018-11-20T02:34:28.910Z,3.40
2018-11-20T02:37:32.574Z,3.40
2018-11-20T02:40:23.666Z,3.30
2018-11-20T02:43:11.603Z,3.30
2018-11-20T02:46:15.730Z,3.30
2018-11-20T02:49:10.284Z,3.30
2018-11-20T02:52:07.885Z,3.20
2018-11-20T02:54:55.513Z,3.10
2018-11-20T02:57:42.938Z,3.00
2018-11-20T03:00:25.539Z,3.00
2018-11-20T03:03:12.770Z,2.90
2018-11-20T03:06:00.603Z,2.90
2018-11-20T03:08:44.959Z,2.90
2018-11-20T03:11:32.584Z,2.80
2018-11-20T03:14:19.811Z,2.90
2018-11-20T03:17:07.412Z,2.90
2018-11-20T03:20:14.059Z,2.90
2018-11-20T03:23:20.884Z,2.90
2018-11-20T03:26:09.844Z,3.00
2018-11-20T03:29:09.660Z,3.00
2018-11-20T03:31:57.288Z,3.00
2018-11-20T03:35:01.199Z,3.00
2018-11-20T03:37:50.070Z,3.00
2018-11-20T03:40:44.547Z,3.10
2018-11-20T03:43:29.101Z,3.00
2018-11-20T03:46:17.979Z,3.10
2018-11-20T03:49:05.494Z,3.00
2018-11-20T03:51:51.580Z,3.00
2018-11-20T03:54:52.439Z,2.90
2018-11-20T03:57:39.739Z,2.90
2018-11-20T04:00:29.599Z,2.90
2018-11-20T04:03:09.555Z,2.80
2018-11-20T04:05:48.666Z,2.80
2018-11-20T04:08:36.022Z,2.90
2018-11-20T04:11:18.200Z,2.90
2018-11-20T04:14:05.649Z,3.00
2018-11-20T04:16:54.515Z,3.00
2018-11-20T04:19:45.183Z,2.90
2018-11-20T04:22:32.630Z,2.90
2018-11-20T04:25:30.538Z,2.90
2018-11-20T04:28:16.663Z,2.90
2018-11-20T04:31:39.965Z,2.90
2018-11-20T04:34:27.485Z,2.90
2018-11-20T04:37:24.226Z,3.00
2018-11-20T04:40:16.053Z,3.00
2018-11-20T04:43:08.899Z,3.00
2018-11-20T04:46:03.804Z,3.00
2018-11-20T04:48:51.433Z,3.00
2018-11-20T04:51:38.242Z,2.90
2018-11-20T04:54:27.203Z,2.90
2018-11-20T04:57:25.004Z,2.90
2018-11-20T05:00:13.935Z,2.90
2018-11-20T05:02:55.996Z,2.80
2018-11-20T05:05:47.760Z,2.80
2018-11-20T05:08:32.588Z,2.80
2018-11-20T05:11:27.210Z,2.80
2018-11-20T05:14:14.532Z,2.60
2018-11-20T05:17:18.439Z,2.50
2018-11-20T05:20:06.277Z,2.40
2018-11-20T05:22:53.701Z,2.40
2018-11-20T05:25:48.490Z,2.40
2018-11-20T05:28:37.457Z,2.40
2018-11-20T05:31:28.873Z,2.40
2018-11-20T05:34:26.640Z,2.30
2018-11-20T05:37:15.603Z,2.30
2018-11-20T05:40:10.651Z,2.30
2018-11-20T05:43:18.082Z,2.20
2018-11-20T05:46:13.099Z,2.10
2018-11-20T05:49:00.544Z,2.10
2018-11-20T05:51:52.148Z,2.10
2018-11-20T05:54:39.875Z,2.10
2018-11-20T05:57:37.846Z,2.20
2018-11-20T06:00:27.117Z,2.30
2018-11-20T06:03:16.080Z,2.30
2018-11-20T06:06:23.262Z,2.20
2018-11-20T06:09:13.531Z,2.20
2018-11-20T06:12:11.321Z,2.10
2018-11-20T06:15:14.191Z,2.10
2018-11-20T06:18:01.531Z,2.10
2018-11-20T06:20:50.487Z,2.20
2018-11-20T06:23:42.621Z,2.20
2018-11-20T06:26:30.250Z,2.30
2018-11-20T06:29:28.085Z,2.20
2018-11-20T06:32:17.796Z,2.20
2018-11-20T06:35:18.533Z,2.20
2018-11-20T06:38:22.743Z,2.20
2018-11-20T06:41:23.627Z,2.30
2018-11-20T06:44:12.467Z,2.30
2018-11-20T06:46:59.975Z,2.30
2018-11-20T06:49:48.840Z,2.30
2018-11-20T06:52:37.797Z,2.40
2018-11-20T06:55:42.038Z,2.40
2018-11-20T06:58:39.886Z,2.40
2018-11-20T07:01:34.122Z,2.40
2018-11-20T07:04:41.043Z,2.40
2018-11-20T07:07:42.030Z,2.50
2018-11-20T07:10:36.550Z,2.60
2018-11-20T07:13:40.567Z,2.60
2018-11-20T07:16:42.761Z,2.70
2018-11-20T07:19:31.720Z,2.80
2018-11-20T07:22:10.208Z,2.90
2018-11-20T07:25:01.548Z,2.90
2018-11-20T07:27:50.508Z,2.90
2018-11-20T07:30:42.429Z,2.90
2018-11-20T07:33:29.761Z,2.90
2018-11-20T07:36:27.813Z,2.90
2018-11-20T07:39:31.640Z,2.90
2018-11-20T07:42:35.235Z,2.80
2018-11-20T07:45:23.191Z,2.90
2018-11-20T07:48:10.707Z,3.00
2018-11-20T07:50:58.234Z,3.00
2018-11-20T07:53:49.343Z,3.10
2018-11-20T07:56:44.243Z,3.20
2018-11-20T07:59:41.804Z,3.30
2018-11-20T08:02:42.754Z,3.40
2018-11-20T08:05:29.453Z,3.50
2018-11-20T08:08:24.257Z,3.50
2018-11-20T08:11:24.990Z,3.40
2018-11-20T08:14:12.313Z,3.30
2018-11-20T08:17:01.369Z,3.40
2018-11-20T08:20:08.556Z,3.40
2018-11-20T08:23:06.263Z,3.50
2018-11-20T08:25:53.630Z,3.60
2018-11-20T08:28:41.000Z,3.80
2018-11-20T08:31:35.657Z,3.80
2018-11-20T08:34:36.605Z,3.90
2018-11-20T08:37:26.960Z,4.20
2018-11-20T08:40:18.515Z,4.40
2018-11-20T08:43:05.796Z,4.60
2018-11-20T08:46:03.712Z,4.60
2018-11-20T08:48:55.021Z,4.60
2018-11-20T08:51:42.343Z,4.60
2018-11-20T08:54:37.145Z,4.40
2018-11-20T08:57:26.201Z,4.30
2018-11-20T09:00:15.161Z,4.30
2018-11-20T09:03:19.015Z,4.50
2018-11-20T09:06:25.178Z,4.70
2018-11-20T09:09:17.073Z,4.90
2018-11-20T09:12:11.863Z,4.70
2018-11-20T09:14:49.454Z,4.40
2018-11-20T09:17:38.210Z,4.50
2018-11-20T09:20:27.703Z,4.30
2018-11-20T09:23:15.002Z,4.20
2018-11-20T09:26:03.886Z,4.20
2018-11-20T09:29:04.922Z,4.40
2018-11-20T09:31:53.863Z,4.50
2018-11-20T09:34:41.605Z,4.30
2018-11-20T09:37:30.556Z,4.40
2018-11-20T09:40:49.166Z,4.30
2018-11-20T09:43:37.045Z,4.30
2018-11-20T09:46:28.595Z,4.30
2018-11-20T09:49:20.114Z,4.30
2018-11-20T09:52:17.981Z,4.40
2018-11-20T09:55:09.577Z,4.40
2018-11-20T09:58:10.311Z,4.50
2018-11-20T10:00:53.315Z,4.70
2018-11-20T10:03:40.795Z,4.90
2018-11-20T10:06:32.992Z,5.00
2018-11-20T10:09:20.520Z,5.00
2018-11-20T10:12:12.346Z,4.80
2018-11-20T10:15:07.266Z,4.70
2018-11-20T10:17:54.875Z,4.80
2018-11-20T10:20:49.610Z,4.80
2018-11-20T10:23:50.723Z,4.70
2018-11-20T10:26:46.385Z,4.50
2018-11-20T10:29:44.200Z,4.50
2018-11-20T10:32:25.895Z,4.60
2018-11-20T10:35:17.717Z,4.70
2018-11-20T10:38:03.809Z,4.70
2018-11-20T10:40:55.743Z,4.90
2018-11-20T10:43:43.061Z,5.20
2018-11-20T10:46:47.013Z,5.80
2018-11-20T10:49:38.486Z,6.60
2018-11-20T10:52:30.346Z,10.80
2018-11-20T10:55:28.086Z,12.00
2018-11-20T10:58:28.838Z,11.40
2018-11-20T11:01:16.254Z,11.10
2018-11-20T11:04:08.077Z,11.00
2018-11-20T11:07:16.059Z,10.80
2018-11-20T11:10:14.315Z,12.50
2018-11-20T11:13:01.886Z,13.30
2018-11-20T11:15:50.845Z,12.10
2018-11-20T11:18:38.577Z,10.70
2018-11-20T11:21:36.358Z,9.30
2018-11-20T11:24:33.905Z,8.20
2018-11-20T11:27:37.815Z,7.50
2018-11-20T11:30:20.172Z,7.00
2018-11-20T11:33:06.013Z,6.50
2018-11-20T11:36:06.950Z,5.90
2018-11-20T11:39:10.794Z,5.60
2018-11-20T11:41:52.191Z,5.50
2018-11-20T11:44:53.086Z,5.50
2018-11-20T11:47:41.919Z,5.40
2018-11-20T11:50:34.359Z,5.40
2018-11-20T11:53:21.495Z,5.40
2018-11-20T11:56:09.383Z,5.30
2018-11-20T11:58:57.012Z,5.50
2018-11-20T12:04:35.596Z,5.90
2018-11-20T12:07:24.369Z,7.60
2018-11-20T12:10:28.465Z,8.60
2018-11-20T12:16:28.300Z,7.20
2018-11-20T12:19:26.208Z,6.60
2018-11-20T12:22:23.813Z,6.00
2018-11-20T12:25:11.258Z,5.60
2018-11-20T12:28:00.220Z,5.20
2018-11-20T12:30:53.618Z,5.10
2018-11-20T12:33:41.970Z,4.90
2018-11-20T12:36:30.545Z,4.80
2018-11-20T12:39:32.051Z,4.90
2018-11-20T12:42:19.593Z,4.90
2018-11-20T12:45:23.365Z,4.90
2018-11-20T12:48:12.338Z,5.00
2018-11-20T12:51:10.092Z,5.00
2018-11-20T12:54:15.087Z,5.00
2018-11-20T12:57:01.324Z,5.10
2018-11-20T12:59:48.850Z,5.20
2018-11-20T13:02:43.395Z,5.10
2018-11-20T13:05:34.965Z,5.10
2018-11-20T13:08:40.440Z,5.10
2018-11-20T13:11:42.474Z,5.10
2018-11-20T13:14:31.869Z,5.10
2018-11-20T13:17:26.196Z,5.00
2018-11-20T13:20:13.893Z,5.00
2018-11-20T13:23:05.183Z,4.90
2018-11-20T13:25:49.908Z,4.80
2018-11-20T13:28:38.799Z,4.70
2018-11-20T13:31:28.235Z,4.70
2018-11-20T13:34:20.789Z,4.70
2018-11-20T13:37:09.783Z,4.70
2018-11-20T13:39:55.233Z,4.60
2018-11-20T13:42:49.739Z,4.60
2018-11-20T13:45:27.311Z,4.50
2018-11-20T13:48:18.622Z,4.40
2018-11-20T13:51:11.797Z,4.40
2018-11-20T13:54:01.550Z,4.20
2018-11-20T13:56:49.011Z,4.10
2018-11-20T13:59:52.922Z,4.00
2018-11-20T14:02:48.134Z,4.00
2018-11-20T14:05:35.553Z,3.90
2018-11-20T14:08:24.420Z,3.90
2018-11-20T14:11:11.234Z,3.80
2018-11-20T14:14:02.619Z,3.70
2018-11-20T14:16:57.130Z,3.70
2018-11-20T14:19:44.448Z,3.70
2018-11-20T14:22:31.985Z,3.70
2018-11-20T14:25:27.552Z,3.80
2018-11-20T14:28:15.016Z,3.80
2018-11-20T14:31:19.131Z,3.80
2018-11-20T14:34:06.869Z,3.80
2018-11-20T14:36:54.187Z,3.80
2018-11-20T14:39:46.012Z,3.70
2018-11-20T14:42:34.931Z,3.60
2018-11-20T14:45:23.727Z,3.60
2018-11-20T14:48:15.246Z,3.70
2018-11-20T14:51:04.072Z,3.60
2018-11-20T14:53:56.829Z,1.60
2018-11-20T14:56:43.150Z,3.60
2018-11-20T14:59:37.744Z,3.60
2018-11-20T15:02:32.237Z,3.60
2018-11-20T15:05:19.758Z,3.60
2018-11-20T15:08:11.483Z,3.60
2018-11-20T15:10:51.104Z,3.60
2018-11-20T15:13:45.615Z,3.60
2018-11-20T15:16:30.789Z,3.60
2018-11-20T15:19:22.719Z,3.50
2018-11-20T15:22:00.417Z,3.30
2018-11-20T15:25:01.461Z,3.30
2018-11-20T15:27:56.154Z,3.20
2018-11-20T15:30:38.333Z,3.20
2018-11-20T15:33:33.251Z,3.10
2018-11-20T15:36:30.951Z,3.10
2018-11-20T15:39:16.495Z,3.00
2018-11-20T15:42:11.001Z,3.00
2018-11-20T15:45:18.274Z,2.80
2018-11-20T15:48:15.704Z,2.80
2018-11-20T15:51:03.465Z,2.70
2018-11-20T15:53:50.889Z,2.60
2018-11-20T15:56:46.201Z,2.50
2018-11-20T15:59:56.091Z,2.40
2018-11-20T16:02:40.967Z,2.30
2018-11-20T16:05:28.648Z,2.30
2018-11-20T16:08:17.603Z,2.30
2018-11-20T16:11:06.563Z,2.20
2018-11-20T16:13:58.437Z,2.20
2018-11-20T16:16:56.156Z,2.10
2018-11-20T16:19:43.581Z,2.10
2018-11-20T16:22:31.311Z,2.00
2018-11-20T16:25:29.079Z,2.00
2018-11-20T16:28:16.605Z,2.00
2018-11-20T16:31:14.601Z,2.10
2018-11-20T16:34:03.443Z,2.10
2018-11-20T16:36:53.930Z,2.20
2018-11-20T16:39:41.699Z,2.20
2018-11-20T16:42:42.485Z,2.30
2018-11-20T16:45:35.526Z,2.40
2018-11-20T16:48:39.676Z,2.50
2018-11-20T16:51:40.716Z,2.50
2018-11-20T16:54:35.204Z,2.40
2018-11-20T16:57:22.524Z,2.30
2018-11-20T17:00:09.850Z,2.20
2018-11-20T17:03:06.591Z,2.20
2018-11-20T17:06:02.824Z,2.20
2018-11-20T17:08:50.550Z,2.10
2018-11-20T17:11:39.511Z,2.10
2018-11-20T17:14:27.241Z,2.10
2018-11-20T17:17:22.141Z,2.10
2018-11-20T17:20:29.016Z,2.10
2018-11-20T17:23:10.696Z,2.10
2018-11-20T17:25:54.320Z,2.10
2018-11-20T17:28:45.751Z,2.10
2018-11-20T17:31:38.717Z,2.00
2018-11-20T17:34:27.678Z,2.10
2018-11-20T17:37:34.868Z,2.10
2018-11-20T17:40:22.801Z,2.10
2018-11-20T17:43:14.526Z,2.10
2018-11-20T17:46:19.257Z,2.10
2018-11-20T17:49:00.026Z,2.20
2018-11-20T17:51:47.857Z,2.20
2018-11-20T17:54:36.715Z,2.20
2018-11-20T17:57:37.895Z,2.30
2018-11-20T18:00:41.018Z,2.40
2018-11-20T18:03:28.376Z,2.40
2018-11-20T18:06:15.598Z,2.40
2018-11-20T18:09:11.416Z,2.40
2018-11-20T18:12:03.140Z,2.40
2018-11-20T18:15:00.810Z,2.50
2018-11-20T18:17:52.437Z,2.40
2018-11-20T18:20:42.091Z,2.50
2018-11-20T18:23:30.858Z,2.50
2018-11-20T18:26:11.636Z,2.50
2018-11-20T18:28:59.147Z,2.50
2018-11-20T18:31:38.362Z,2.50
2018-11-20T18:34:45.338Z,2.60
2018-11-20T18:37:32.690Z,2.60
2018-11-20T18:40:27.897Z,2.70
2018-11-20T18:43:15.423Z,2.80
2018-11-20T18:46:10.426Z,2.70
2018-11-20T18:49:06.743Z,2.80
2018-11-20T18:51:54.387Z,2.80
2018-11-20T18:54:37.812Z,2.80
2018-11-20T18:57:35.890Z,2.70
2018-11-20T19:00:25.394Z,2.70
2018-11-20T19:03:13.095Z,2.70
2018-11-20T19:06:00.522Z,2.70
2018-11-20T19:08:55.109Z,2.80
2018-11-20T19:11:52.880Z,2.80
2018-11-20T19:14:45.388Z,2.80
2018-11-20T19:17:32.362Z,2.80
2018-11-20T19:20:23.854Z,2.70
2018-11-20T19:23:11.505Z,2.70
2018-11-20T19:26:00.381Z,2.60
2018-11-20T19:28:38.859Z,2.50
2018-11-20T19:31:30.734Z,2.60
2018-11-20T19:34:31.673Z,2.60
2018-11-20T19:37:25.439Z,2.60
2018-11-20T19:40:24.089Z,2.70
2018-11-20T19:43:11.507Z,2.70
2018-11-20T19:46:00.467Z,2.70
2018-11-20T19:49:04.584Z,2.70
2018-11-20T19:52:08.699Z,2.80
2018-11-20T19:55:06.773Z,2.80
2018-11-20T19:57:55.219Z,2.80
2018-11-20T20:00:32.477Z,2.80
2018-11-20T20:03:27.914Z,2.90
2018-11-20T20:06:15.546Z,2.90
2018-11-20T20:09:16.172Z,2.90
2018-11-20T20:12:08.016Z,2.90
2018-11-20T20:15:08.750Z,2.90
2018-11-20T20:18:06.515Z,2.90
2018-11-20T20:20:53.934Z,2.80
2018-11-20T20:23:41.362Z,2.70
2018-11-20T20:26:28.986Z,2.60
2018-11-20T20:29:16.614Z,2.60
2018-11-20T20:32:17.455Z,2.60
2018-11-20T20:35:04.784Z,2.50
2018-11-20T20:37:52.404Z,2.50
2018-11-20T20:40:59.802Z,2.50
2018-11-20T20:43:47.424Z,2.50
2018-11-20T20:47:19.904Z,2.60
2018-11-20T20:50:13.869Z,2.70
2018-11-20T20:53:02.027Z,2.70
2018-11-20T20:55:51.703Z,2.70
2018-11-20T20:58:40.977Z,2.70
2018-11-20T21:01:29.014Z,2.60
2018-11-20T21:04:23.506Z,2.60
2018-11-20T21:07:11.643Z,2.50
2018-11-20T21:09:58.656Z,2.40
2018-11-20T21:12:48.942Z,2.50
2018-11-20T21:15:35.751Z,2.50
2018-11-20T21:18:36.385Z,2.50
2018-11-20T21:21:23.308Z,2.60
2018-11-20T21:24:09.904Z,2.60
2018-11-20T21:27:00.810Z,2.60
2018-11-20T21:29:47.823Z,2.70
2018-11-20T21:32:41.832Z,2.70
2018-11-20T21:35:46.830Z,2.70
2018-11-20T21:38:25.923Z,2.60
2018-11-20T21:41:32.085Z,2.60
2018-11-20T21:44:19.143Z,2.60
2018-11-20T21:47:16.296Z,2.60
2018-11-20T21:50:04.352Z,2.60
2018-11-20T21:52:43.039Z,2.70
2018-11-20T21:55:46.577Z,2.70
2018-11-20T21:58:26.080Z,2.70
2018-11-20T22:01:17.594Z,2.80
2018-11-20T22:04:14.656Z,2.80
2018-11-20T22:07:00.859Z,2.80
2018-11-20T22:09:55.144Z,2.80
2018-11-20T22:12:55.340Z,2.80
2018-11-20T22:15:41.975Z,2.80
2018-11-20T22:18:28.783Z,2.80
2018-11-20T22:21:32.182Z,2.70
2018-11-20T22:24:12.028Z,2.70
2018-11-20T22:26:51.764Z,2.70
2018-11-20T22:29:39.816Z,2.60
2018-11-20T22:32:39.935Z,2.60
2018-11-20T22:35:30.910Z,2.50
2018-11-20T22:38:17.755Z,2.50
2018-11-20T22:41:05.893Z,2.50
2018-11-20T22:43:57.013Z,2.50
2018-11-20T22:46:44.121Z,2.50
2018-11-20T22:49:50.591Z,2.50
2018-11-20T22:52:34.720Z,2.60
2018-11-20T22:55:21.554Z,2.70
2018-11-20T22:58:19.397Z,2.60
2018-11-20T23:01:26.376Z,2.70
2018-11-20T23:04:14.356Z,2.60
2018-11-20T23:07:02.449Z,2.60
2018-11-20T23:09:31.440Z,2.60
2018-11-20T23:12:00.408Z,2.60
2018-11-20T23:14:29.648Z,2.50
2018-11-20T23:16:58.714Z,2.60
2018-11-20T23:19:27.691Z,2.70
2018-11-20T23:21:56.768Z,2.80
2018-11-20T23:24:25.771Z,2.80
2018-11-20T23:26:54.832Z,2.80
2018-11-20T23:29:23.789Z,2.90
2018-11-20T23:31:52.761Z,2.90
2018-11-20T23:34:21.762Z,2.90
2018-11-20T23:36:50.780Z,2.90
2018-11-20T23:39:19.827Z,2.90
2018-11-20T23:41:48.737Z,2.90
2018-11-20T23:44:17.645Z,2.90
2018-11-20T23:46:46.523Z,2.90
2018-11-20T23:49:15.604Z,3.00
2018-11-20T23:51:46.880Z,3.10
2018-11-20T23:54:15.851Z,3.10
2018-11-20T23:56:47.644Z,3.10
2018-11-20T23:59:16.740Z,3.00
